METAR Data
IDs: Format: Raw Decoded Include TAF

Data at: 1133 UTC 11 May 2021

LIMC 111120Z 12012KT 9999 RA BKN010 BKN050 14/14 Q1010 NOSIG

TAF LIMC 111100Z 1112/1218 10012KT 9999 BKN040
  TEMPO 1112/1121 4000 SHRA
  BECMG 1117/1119 VRB05KT


LIME 111120Z 11007KT 8000 -RA SCT020 BKN035 14/13 Q1011 RERA NOSIG

TAF LIME 111100Z 1112/1212 13012KT 8000 BKN040
  TEMPO 1112/1116 4000 SHRA
  BECMG 1117/1119 VRB05KT


LIMF 111120Z 06008KT 5000 BR BKN004 OVC020 14/14 Q1008

TAF LIMF 111100Z 1112/1212 VRB06KT 8000 BKN020
  TEMPO 1112/1116 4000 SHRA


LIMG 111050Z 18004KT 9999 -RA SCT010 SCT015 BKN060 16/16 Q1009 RERA
No TAF found for LIMG

LIMJ 111120Z 13008KT 9999 -RA FEW010 SCT020 BKN027 15/14 Q1010

TAF LIMJ 111100Z 1112/1212 18013KT 9999 BKN025
  TEMPO 1112/1116 3000 TSRA
  BECMG 1119/1121 VRB05KT


LIML 111120Z 12009KT 080V140 9999 -RA BKN010 OVC030 15/14 Q1010 NOSIG

TAF LIML 111100Z 1112/1212 12012KT 8000 BKN040
  TEMPO 1112/1116 4000 SHRA
  BECMG 1117/1119 VRB05KT


LIMP 111050Z 05005KT 020V080 8000 SCT008 BKN060 16/15 Q1010

TAF LIMP 111100Z 1112/1212 12012KT 8000 FEW030
  TEMPO 1112/1116 4000 SHRA
  BECMG 1117/1119 VRB05KT


LIPA 111055Z 04013KT 9999 SCT080 SCT100 20/13 Q1012 RMK BKN VIS MIN 9999 WIND THR05 /////KT WIND THR23 /////KT A2989 BLU

TAF LIPA 111100Z 1112/1121 07006KT 8000 FEW025 BKN060
  BECMG 1113/1115 5000 RA BR SCT025 BKN040
  TEMPO 1115/1121 3000 TSRA FEW020CB BKN030


LIPB 111050Z VRB02KT 8000 RA SCT008 SCT035 BKN055 15/13 Q1013 RMK MON GEN INC

TAF LIPB 111100Z 1112/1212 VRB04KT 9999 BKN040
  TEMPO 1112/1206 4000 RA


LIPC 111055Z 08006KT 9999 FEW050 20/16 Q1010 RMK BKN SCT100 VIS MIN 9999 WIND THR11 07005KT WIND THR29 09007KT BLU

TAF LIPC 111100Z 1112/1121 12013KT 9999 SCT040 BKNO80
  TEMPO 1112/1118 5000 RA
  PROB30
  TEMPO 1115/1118 3000 TSRA FEW030CB BKN040


LIPH 111120Z 05008KT 9999 -RA BKN060 19/13 Q1011

TAF LIPH 111100Z 1112/1212 04010KT 9999 BKN040
  TEMPO 1112/1206 4000 SHRA BKN010
  BECMG 1200/1202 VRB05KT


LIPI 111055Z 04007KT 9999 FEW060 BKN100 20/14 Q1012 RMK OVC VIS MIN 9999 WIND THR06 07007KT WIND THR24 06007KT BLU

TAF LIPI 111100Z 1112/1121 09007KT 9999 SCT040 BKN080
  TEMPO 1114/1121 18015KT 7000 RA
  PROB40
  TEMPO 1116/1121 4000 TSRA FEW020CB BKN035


LIPK 111050Z 08009KT 9999 SCT045 21/13 Q1010

TAF LIPK 111100Z 1112/1212 VRB05KT 9999 SCT040
  TEMPO 1114/1118 RA


LIPL 111055Z /////KT 5000 -RA BR SCT034 SCT045 14/13 Q1010 RMK OVC VIS MIN 5000 WIND THR31 04011KT WIND THR13 /////KT WHT

TAF LIPL 111100Z 1112/1121 12010KT 6000 -RA SCT030 BKN050
  TEMPO 1112/1116 10015G25KT 3000 SHRA FEW010 SCT020CB BKN040


LIPO 111120Z AUTO 02011KT 360V060 9999 -RA OVC050 15/14 Q1010 REDZ

TAF LIPO 111100Z 1112/1212 11012KT 9999 FEW040
  TEMPO 1112/1116 4000 SHRA
  BECMG 1117/1119 VRB05KT


LIPQ 111120Z AUTO VRB03KT 9999 FEW130/// SCT190/// 23/13 Q1012

TAF LIPQ 111100Z 1112/1212 VRB05KT 9999 SCT060
  BECMG 1115/1117 16010KT
  TEMPO 1120/1124 4000 RA BKN010
  TEMPO 1200/1206 3000 TSRA BKN010


LIPR 111120Z 10011KT CAVOK 21/15 Q1010

TAF LIPR 111100Z 1112/1121 08010KT 9999 SCT040
  TEMPO 1114/1119 RA
  BECMG 11118/1120 24010KT


LIPZ 111120Z 05011KT 9999 SCT060 19/14 Q1012 NOSIG

TAF LIPZ 111100Z 1112/1218 08010KT 9999 SCT070
  TEMPO 1112/1120 RA BKN013
  BECMG 1116/1118 16012KT
  TEMPO 1120/1204 3000 TSRA BKN010
  BECMG 1122/1124 03007KT
  TEMPO 1204/1215 RA BKN014


LIRP 111115Z 21012KT 5000 -RA BR FEW013 SCT020 BKN050 15/14 Q1011 NOSIG

TAF LIRP 111100Z 1112/1212 11010KT 6000 SCT020 BKN050
  TEMPO 1112/1124 15010G20KT 3000 TSRA FEW015CB SCT030
  BECMG 1201/1203 21010KT 7000 BKN040


LFKB 111100Z AUTO 34005KT 300V020 5000 2400 +RA BR FEW012/// BKN046/// BKN056/// ///CB 14/13 Q1011 TEMPO VRB15G25KT TSRA BKN010 SCT030CB

TAF LFKB 110800Z 1109/1209 VRB05KT 9999 FEW013 BKN022 FEW040TCU BKN050 TX19/1115Z TN10/1203Z
  TEMPO 1109/1116 3000 RA BKN011 SCT030CB OVC045
  PROB30
  TEMPO 1109/1112 TSRA BKN010 SCT030CB
  TEMPO 1112/1117 VRB15G25KT 4000 SHRA BKN015 SCT030CB
  PROB30
  TEMPO 1112/1116 TSRA
  BECMG 1117/1119 NSC
  TEMPO 1119/1202 23010KT


LFKC 111100Z AUTO 17004KT 4500 RA BR FEW013/// BKN045/// BKN054/// ///CB 15/14 Q1011 TEMPO 23015G25KT BKN010 SCT025CB BKN035 BECMG 9999 NSW

TAF LFKC 110800Z 1109/1209 01005KT 9999 SCT011 BKN020 SCT030TCU TX20/1115Z TN13/1204Z
  TEMPO 1109/1112 23015G25KT 2000 RA BKN010 SCT025CB BKN035
  BECMG 1112/1113 21012G22KT SCT025 FEW035TCU
  TEMPO 1113/1117 4000 SHRA SCT015 SCT030CB
  PROB30
  TEMPO 1113/1117 TSRA
  BECMG 1117/1119 VRB03KT NSC


LFKJ 111100Z AUTO VRB02KT 9000 -RA FEW026/// BKN037/// BKN049/// ///CB 16/14 Q1012 TEMPO 25017G27KT 2000 RA BECMG SCT025

TAF LFKJ 110800Z 1109/1209 24010KT 9999 SCT013 BKN033 FEW035TCU BKN060
  TEMPO 1109/1112 25017G27KT 2000 RA BKN007 OVC015 SCT025CB
  BECMG 1112/1113 SCT025
  TEMPO 1113/1117 4000 SHRA SCT015 SCT025CB
  PROB30
  TEMPO 1114/1117 TSRA


LFLL 111100Z 19011KT 150V220 9999 FEW020 BKN260 14/09 Q1010 NOSIG

TAF LFLL 111100Z 1112/1218 21008KT 9999 SCT025 BKN060
  BECMG 1112/1114 33010KT
  TEMPO 1112/1115 4000 SHRA SCT030TCU BKN050
  PROB40
  TEMPO 1112/1115 33015G25KT
  PROB30
  TEMPO 1112/1115 TSRA SCT030CB BKN050
  BECMG 1117/1119 VRB03KT
  PROB30
  TEMPO 1119/1121 SHRA FEW030TCU BKN045
  PROB40
  TEMPO 1202/1207 4000 BR
  PROB30
  TEMPO 1202/1207 0600 BCFG
  BECMG 1207/1209 36006KT
  BECMG 1212/1214 CAVOK


LFML 111100Z AUTO 28015KT CAVOK 19/11 Q1010 TEMPO 29020G30KT SHRA SCT030TCU

TAF AMD LFML 111041Z 1110/1215 26015KT CAVOK TX20/1114Z TN11/1204Z
  TEMPO 1112/1118 SHRA SCT030TCU
  TEMPO 1112/1118 29020G30KT


LFMN 111100Z 18005KT 9999 FEW010 SCT033 BKN110 17/16 Q1010 NOSIG

TAF LFMN 110800Z 1109/1215 20010KT 9999 SCT010 BKN020
  TEMPO 1109/1116 VRB10KT 4000 SHRA BKN014 BKN025TCU
  PROB40
  TEMPO 1109/1115 VRB20KT 2000 TSRA BKN025CB
  BECMG 1120/1122 33010KT CAVOK
  BECMG 1208/1210 16005KT
  BECMG 1211/1213 24020KT


LOWI 111120Z 05016G31KT 330V140 9999 SCT090 BKN120 19/06 Q1008 WS ALL RWY NOSIG

TAF LOWI 111115Z 1112/1212 12015G25KT CAVOK TX21/1112Z TN09/1204Z
  TEMPO 1112/1118 09020G40KT
  PROB30
  TEMPO 1114/1118 VRB15KT -SHRA SCT050TCU BKN070
  FM111900 29010G20KT 9999 -RA SCT030 OVC050
  TEMPO 1121/1209 09007KT RA BKN012


LOWL 111120Z 08010KT 050V120 CAVOK 27/10 Q1004 NOSIG

TAF LOWL 111115Z 1112/1212 10010KT CAVOK TX28/1113Z TN12/1212Z
  TEMPO 1114/1118 17015KT
  BECMG 1118/1120 26010KT
  PROB30
  TEMPO 1120/1124 28015G25KT SHRA
  BECMG 1200/1202 7000 RA BKN020


LOWW 111120Z 15024KT CAVOK 28/09 Q1009 NOSIG

TAF LOWW 111115Z 1112/1218 15020KT CAVOK TX28/1112Z TN14/1218Z
  TEMPO 1112/1116 16025G35KT
  BECMG 1117/1119 14010KT
  BECMG 1121/1123 12005KT
  FM120300 30012KT 9999 BKN030
  TEMPO 1205/1218 31015G25KT -RA
  PROB30
  TEMPO 1207/1215 SHRA


LSGG 111120Z 20011KT 9999 FEW025 SCT030 BKN095 15/08 Q1010 NOSIG

TAF LSGG 111125Z 1112/1218 23010KT 9999 FEW020 SCT035 BKN050 TX14/1114Z TN10/1205Z TX17/1214Z
  PROB40
  TEMPO 1114/1119 4500 SHRA FEW040TCU
  PROB30
  TEMPO 1115/1118 TSRA FEW040CB
  BECMG 1116/1119 VRB02KT
  PROB30
  TEMPO 1123/1203 SHRA
  BECMG 1206/1209 22010KT


LSZH 111120Z 29016KT 9999 -SHRA FEW014 BKN016 13/10 Q1009 TEMPO SHRA

TAF LSZH 111125Z 1112/1218 27012KT 9999 FEW015 BKN035 TX14/1112Z TN09/1204Z TX14/1214Z
  TEMPO 1112/1203 SHRA BKN020TCU
  BECMG 1115/1118 24006KT